sensor_id;sensor_type;location;lat;lon;timestamp;pressure;altitude;pressure_sealevel;temperature;humidity
84712;BME280;74937;44.534;18.684;2024-01-15T00:00:17;98004.94;;;-1.40;76.09
84712;BME280;74937;44.534;18.684;2024-01-15T00:02:43;98002.41;;;-1.42;76.57
84712;BME280;74937;44.534;18.684;2024-01-15T00:05:09;98001.44;;;-1.39;76.29
84712;BME280;74937;44.534;18.684;2024-01-15T00:07:35;97998.84;;;-1.39;75.99
84712;BME280;74937;44.534;18.684;2024-01-15T00:10:01;97991.25;;;-1.42;76.57
84712;BME280;74937;44.534;18.684;2024-01-15T00:12:27;97989.59;;;-1.45;76.96
84712;BME280;74937;44.534;18.684;2024-01-15T00:14:53;97990.19;;;-1.38;75.83
84712;BME280;74937;44.534;18.684;2024-01-15T00:17:19;97988.00;;;-1.47;76.88
84712;BME280;74937;44.534;18.684;2024-01-15T00:19:45;97997.59;;;-1.49;76.94
84712;BME280;74937;44.534;18.684;2024-01-15T00:22:10;97993.03;;;-1.44;76.71
84712;BME280;74937;44.534;18.684;2024-01-15T00:24:36;97990.25;;;-1.40;76.56
84712;BME280;74937;44.534;18.684;2024-01-15T00:27:02;97992.78;;;-1.38;76.03
84712;BME280;74937;44.534;18.684;2024-01-15T00:29:27;97986.75;;;-1.39;75.61
84712;BME280;74937;44.534;18.684;2024-01-15T00:31:53;97977.53;;;-1.44;75.87
84712;BME280;74937;44.534;18.684;2024-01-15T00:34:18;97980.06;;;-1.43;76.16
84712;BME280;74937;44.534;18.684;2024-01-15T00:36:44;97974.69;;;-1.38;76.02
84712;BME280;74937;44.534;18.684;2024-01-15T00:39:10;97974.69;;;-1.38;76.13
84712;BME280;74937;44.534;18.684;2024-01-15T00:41:36;97971.41;;;-1.42;76.16
84712;BME280;74937;44.534;18.684;2024-01-15T00:44:02;97974.19;;;-1.46;75.97
84712;BME280;74937;44.534;18.684;2024-01-15T00:46:28;97972.50;;;-1.47;76.18
84712;BME280;74937;44.534;18.684;2024-01-15T00:48:54;97963.16;;;-1.50;76.47
84712;BME280;74937;44.534;18.684;2024-01-15T00:51:20;97970.56;;;-1.42;75.94
84712;BME280;74937;44.534;18.684;2024-01-15T00:53:45;97962.03;;;-1.44;76.03
84712;BME280;74937;44.534;18.684;2024-01-15T00:56:11;97962.44;;;-1.53;76.20
84712;BME280;74937;44.534;18.684;2024-01-15T00:58:36;97958.25;;;-1.56;76.39
84712;BME280;74937;44.534;18.684;2024-01-15T01:01:02;97942.16;;;-1.62;76.39
84712;BME280;74937;44.534;18.684;2024-01-15T01:03:28;97944.78;;;-1.64;76.45
84712;BME280;74937;44.534;18.684;2024-01-15T01:05:54;97937.13;;;-1.66;76.99
84712;BME280;74937;44.534;18.684;2024-01-15T01:08:19;97936.34;;;-1.68;77.24
84712;BME280;74937;44.534;18.684;2024-01-15T01:10:45;97941.34;;;-1.63;77.19
84712;BME280;74937;44.534;18.684;2024-01-15T01:13:10;97929.88;;;-1.57;76.93
84712;BME280;74937;44.534;18.684;2024-01-15T01:15:36;97926.44;;;-1.58;76.62
84712;BME280;74937;44.534;18.684;2024-01-15T01:18:04;97931.69;;;-1.59;76.93
84712;BME280;74937;44.534;18.684;2024-01-15T01:20:30;97926.59;;;-1.61;76.86
84712;BME280;74937;44.534;18.684;2024-01-15T01:22:55;97925.59;;;-1.58;76.76
84712;BME280;74937;44.534;18.684;2024-01-15T01:25:21;97924.00;;;-1.61;76.62
84712;BME280;74937;44.534;18.684;2024-01-15T01:27:47;97923.94;;;-1.59;76.36
84712;BME280;74937;44.534;18.684;2024-01-15T01:30:12;97917.09;;;-1.60;76.10
84712;BME280;74937;44.534;18.684;2024-01-15T01:32:38;97907.69;;;-1.61;76.25
84712;BME280;74937;44.534;18.684;2024-01-15T01:35:04;97898.28;;;-1.64;76.38
84712;BME280;74937;44.534;18.684;2024-01-15T01:37:29;97894.59;;;-1.58;76.12
84712;BME280;74937;44.534;18.684;2024-01-15T01:39:55;97892.28;;;-1.65;76.76
84712;BME280;74937;44.534;18.684;2024-01-15T01:42:21;97886.28;;;-1.65;76.95
84712;BME280;74937;44.534;18.684;2024-01-15T01:44:46;97887.69;;;-1.58;76.68
84712;BME280;74937;44.534;18.684;2024-01-15T01:47:12;97887.28;;;-1.68;76.90
84712;BME280;74937;44.534;18.684;2024-01-15T01:49:38;97877.00;;;-1.69;77.46
84712;BME280;74937;44.534;18.684;2024-01-15T01:52:05;97875.94;;;-1.65;76.79
84712;BME280;74937;44.534;18.684;2024-01-15T01:54:35;97873.28;;;-1.64;76.68
84712;BME280;74937;44.534;18.684;2024-01-15T01:57:03;97877.69;;;-1.66;76.85
84712;BME280;74937;44.534;18.684;2024-01-15T01:59:30;97854.53;;;-1.67;76.58
84712;BME280;74937;44.534;18.684;2024-01-15T02:01:57;97860.44;;;-1.65;76.55
84712;BME280;74937;44.534;18.684;2024-01-15T02:04:24;97851.75;;;-1.62;76.38
84712;BME280;74937;44.534;18.684;2024-01-15T02:06:51;97848.03;;;-1.57;75.24
84712;BME280;74937;44.534;18.684;2024-01-15T02:09:18;97847.19;;;-1.57;75.72
84712;BME280;74937;44.534;18.684;2024-01-15T02:11:46;97843.09;;;-1.61;75.66
84712;BME280;74937;44.534;18.684;2024-01-15T02:14:12;97840.63;;;-1.46;74.98
84712;BME280;74937;44.534;18.684;2024-01-15T02:16:37;97837.75;;;-1.58;75.72
84712;BME280;74937;44.534;18.684;2024-01-15T02:19:03;97837.75;;;-1.58;75.76
84712;BME280;74937;44.534;18.684;2024-01-15T02:21:29;97826.75;;;-1.62;75.71
84712;BME280;74937;44.534;18.684;2024-01-15T02:23:57;97817.25;;;-1.61;75.71
84712;BME280;74937;44.534;18.684;2024-01-15T02:26:23;97814.50;;;-1.58;75.46
84712;BME280;74937;44.534;18.684;2024-01-15T02:28:50;97816.25;;;-1.59;75.88
84712;BME280;74937;44.534;18.684;2024-01-15T02:31:16;97806.56;;;-1.54;75.75
84712;BME280;74937;44.534;18.684;2024-01-15T02:33:43;97803.16;;;-1.54;75.93
84712;BME280;74937;44.534;18.684;2024-01-15T02:36:09;97798.94;;;-1.57;76.37
84712;BME280;74937;44.534;18.684;2024-01-15T02:38:34;97789.59;;;-1.59;76.06
84712;BME280;74937;44.534;18.684;2024-01-15T02:41:00;97791.06;;;-1.54;75.93
84712;BME280;74937;44.534;18.684;2024-01-15T02:43:26;97786.94;;;-1.58;76.22
84712;BME280;74937;44.534;18.684;2024-01-15T02:45:51;97778.63;;;-1.65;76.61
84712;BME280;74937;44.534;18.684;2024-01-15T02:48:17;97770.88;;;-1.65;76.27
84712;BME280;74937;44.534;18.684;2024-01-15T02:50:43;97764.78;;;-1.64;76.83
84712;BME280;74937;44.534;18.684;2024-01-15T02:53:08;97755.31;;;-1.63;77.33
84712;BME280;74937;44.534;18.684;2024-01-15T02:55:34;97753.41;;;-1.59;77.35
84712;BME280;74937;44.534;18.684;2024-01-15T02:57:59;97763.28;;;-1.49;76.33
84712;BME280;74937;44.534;18.684;2024-01-15T03:00:25;97763.69;;;-1.58;77.11
84712;BME280;74937;44.534;18.684;2024-01-15T03:02:51;97751.66;;;-1.59;77.08
84712;BME280;74937;44.534;18.684;2024-01-15T03:05:17;97753.34;;;-1.58;76.90
84712;BME280;74937;44.534;18.684;2024-01-15T03:07:43;97756.75;;;-1.57;76.79
84712;BME280;74937;44.534;18.684;2024-01-15T03:10:09;97746.50;;;-1.59;76.82
84712;BME280;74937;44.534;18.684;2024-01-15T03:12:35;97742.97;;;-1.56;77.13
84712;BME280;74937;44.534;18.684;2024-01-15T03:15:01;97738.34;;;-1.50;76.39
84712;BME280;74937;44.534;18.684;2024-01-15T03:17:27;97735.81;;;-1.51;76.73
84712;BME280;74937;44.534;18.684;2024-01-15T03:19:52;97738.38;;;-1.51;76.78
84712;BME280;74937;44.534;18.684;2024-01-15T03:22:18;97730.03;;;-1.56;77.03
84712;BME280;74937;44.534;18.684;2024-01-15T03:24:44;97737.09;;;-1.60;77.51
84712;BME280;74937;44.534;18.684;2024-01-15T03:27:10;97745.66;;;-1.59;77.02
84712;BME280;74937;44.534;18.684;2024-01-15T03:29:36;97734.28;;;-1.55;77.14
84712;BME280;74937;44.534;18.684;2024-01-15T03:32:01;97734.06;;;-1.51;76.78
84712;BME280;74937;44.534;18.684;2024-01-15T03:34:27;97729.88;;;-1.53;76.18
84712;BME280;74937;44.534;18.684;2024-01-15T03:36:52;97727.22;;;-1.52;76.44
84712;BME280;74937;44.534;18.684;2024-01-15T03:39:18;97712.78;;;-1.56;76.02
84712;BME280;74937;44.534;18.684;2024-01-15T03:41:44;97713.56;;;-1.73;77.44
84712;BME280;74937;44.534;18.684;2024-01-15T03:44:10;97707.63;;;-1.75;78.01
84712;BME280;74937;44.534;18.684;2024-01-15T03:46:35;97700.66;;;-1.73;78.18
84712;BME280;74937;44.534;18.684;2024-01-15T03:49:01;97690.13;;;-1.68;77.54
84712;BME280;74937;44.534;18.684;2024-01-15T03:51:27;97700.38;;;-1.67;77.62
84712;BME280;74937;44.534;18.684;2024-01-15T03:53:53;97698.59;;;-1.47;77.66
84712;BME280;74937;44.534;18.684;2024-01-15T03:56:18;97691.34;;;-1.58;77.40
84712;BME280;74937;44.534;18.684;2024-01-15T03:58:44;97698.03;;;-1.54;77.86
84712;BME280;74937;44.534;18.684;2024-01-15T04:01:10;97693.56;;;-1.50;77.52
84712;BME280;74937;44.534;18.684;2024-01-15T04:03:36;97686.72;;;-1.51;77.69
84712;BME280;74937;44.534;18.684;2024-01-15T04:06:03;97687.63;;;-1.52;77.75
84712;BME280;74937;44.534;18.684;2024-01-15T04:08:29;97677.91;;;-1.47;78.01
84712;BME280;74937;44.534;18.684;2024-01-15T04:10:55;97674.13;;;-1.40;77.68
84712;BME280;74937;44.534;18.684;2024-01-15T04:13:20;97679.47;;;-1.26;77.08
84712;BME280;74937;44.534;18.684;2024-01-15T04:15:46;97678.78;;;-1.29;77.78
84712;BME280;74937;44.534;18.684;2024-01-15T04:18:12;97663.31;;;-1.31;77.91
84712;BME280;74937;44.534;18.684;2024-01-15T04:20:37;97669.38;;;-1.30;77.86
84712;BME280;74937;44.534;18.684;2024-01-15T04:23:04;97651.28;;;-1.30;77.94
84712;BME280;74937;44.534;18.684;2024-01-15T04:25:30;97654.59;;;-1.28;77.97
84712;BME280;74937;44.534;18.684;2024-01-15T04:27:55;97650.28;;;-1.28;77.57
84712;BME280;74937;44.534;18.684;2024-01-15T04:30:21;97657.28;;;-1.30;77.98
84712;BME280;74937;44.534;18.684;2024-01-15T04:32:47;97649.44;;;-1.28;78.00
84712;BME280;74937;44.534;18.684;2024-01-15T04:35:12;97640.47;;;-1.21;77.79
84712;BME280;74937;44.534;18.684;2024-01-15T04:37:39;97638.25;;;-1.12;77.02
84712;BME280;74937;44.534;18.684;2024-01-15T04:40:06;97633.91;;;-1.11;77.22
84712;BME280;74937;44.534;18.684;2024-01-15T04:42:32;97636.34;;;-1.08;76.84
84712;BME280;74937;44.534;18.684;2024-01-15T04:44:58;97627.53;;;-1.04;77.41
84712;BME280;74937;44.534;18.684;2024-01-15T04:47:24;97635.81;;;-0.97;77.11
84712;BME280;74937;44.534;18.684;2024-01-15T04:49:49;97627.75;;;-0.91;76.32
84712;BME280;74937;44.534;18.684;2024-01-15T04:52:15;97626.84;;;-0.90;77.13
84712;BME280;74937;44.534;18.684;2024-01-15T04:54:41;97624.16;;;-0.89;76.71
84712;BME280;74937;44.534;18.684;2024-01-15T04:57:06;97620.56;;;-0.86;76.71
84712;BME280;74937;44.534;18.684;2024-01-15T04:59:32;97627.34;;;-0.84;76.82
84712;BME280;74937;44.534;18.684;2024-01-15T05:01:57;97622.84;;;-0.80;77.07
84712;BME280;74937;44.534;18.684;2024-01-15T05:04:23;97619.13;;;-0.74;76.43
84712;BME280;74937;44.534;18.684;2024-01-15T05:06:50;97625.81;;;-0.70;76.59
84712;BME280;74937;44.534;18.684;2024-01-15T05:09:16;97623.13;;;-0.69;76.68
84712;BME280;74937;44.534;18.684;2024-01-15T05:11:43;97617.03;;;-0.68;76.39
84712;BME280;74937;44.534;18.684;2024-01-15T05:14:09;97606.88;;;-0.71;76.47
84712;BME280;74937;44.534;18.684;2024-01-15T05:16:35;97601.69;;;-0.71;76.51
84712;BME280;74937;44.534;18.684;2024-01-15T05:19:00;97603.38;;;-0.70;77.14
84712;BME280;74937;44.534;18.684;2024-01-15T05:21:26;97600.88;;;-0.71;76.94
84712;BME280;74937;44.534;18.684;2024-01-15T05:23:52;97601.28;;;-0.63;76.94
84712;BME280;74937;44.534;18.684;2024-01-15T05:26:17;97598.28;;;-0.71;77.13
84712;BME280;74937;44.534;18.684;2024-01-15T05:28:43;97590.50;;;-0.71;77.95
84712;BME280;74937;44.534;18.684;2024-01-15T05:31:09;97592.19;;;-0.70;77.63
84712;BME280;74937;44.534;18.684;2024-01-15T05:33:34;97587.00;;;-0.70;77.95
84712;BME280;74937;44.534;18.684;2024-01-15T05:36:00;97582.50;;;-0.67;77.64
84712;BME280;74937;44.534;18.684;2024-01-15T05:38:27;97578.09;;;-0.65;78.01
84712;BME280;74937;44.534;18.684;2024-01-15T05:40:53;97577.09;;;-0.62;77.96
84712;BME280;74937;44.534;18.684;2024-01-15T05:43:18;97585.53;;;-0.59;77.95
84712;BME280;74937;44.534;18.684;2024-01-15T05:45:44;97587.75;;;-0.52;77.52
84712;BME280;74937;44.534;18.684;2024-01-15T05:48:12;97595.91;;;-0.43;77.58
84712;BME280;74937;44.534;18.684;2024-01-15T05:50:38;97591.38;;;-0.39;77.18
84712;BME280;74937;44.534;18.684;2024-01-15T05:53:04;97588.63;;;-0.36;77.15
84712;BME280;74937;44.534;18.684;2024-01-15T05:55:30;97573.69;;;-0.31;77.60
84712;BME280;74937;44.534;18.684;2024-01-15T05:57:55;97573.50;;;-0.28;77.44
84712;BME280;74937;44.534;18.684;2024-01-15T06:00:22;97574.84;;;-0.21;77.74
84712;BME280;74937;44.534;18.684;2024-01-15T06:02:48;97575.44;;;-0.16;77.67
84712;BME280;74937;44.534;18.684;2024-01-15T06:05:14;97579.53;;;-0.12;78.00
84712;BME280;74937;44.534;18.684;2024-01-15T06:07:40;97570.09;;;-0.13;78.51
84712;BME280;74937;44.534;18.684;2024-01-15T06:10:06;97562.16;;;-0.10;78.29
84712;BME280;74937;44.534;18.684;2024-01-15T06:12:31;97557.72;;;-0.08;78.18
84712;BME280;74937;44.534;18.684;2024-01-15T06:14:59;97554.03;;;-0.04;78.14
84712;BME280;74937;44.534;18.684;2024-01-15T06:17:24;97549.38;;;0.03;77.81
84712;BME280;74937;44.534;18.684;2024-01-15T06:19:50;97551.72;;;0.08;77.53
84712;BME280;74937;44.534;18.684;2024-01-15T06:22:16;97543.75;;;0.11;77.59
84712;BME280;74937;44.534;18.684;2024-01-15T06:24:41;97546.22;;;0.28;77.31
84712;BME280;74937;44.534;18.684;2024-01-15T06:27:08;97535.28;;;0.23;77.62
84712;BME280;74937;44.534;18.684;2024-01-15T06:29:33;97546.56;;;0.22;77.89
84712;BME280;74937;44.534;18.684;2024-01-15T06:32:02;97537.97;;;0.21;77.92
84712;BME280;74937;44.534;18.684;2024-01-15T06:34:28;97541.19;;;0.25;77.85
84712;BME280;74937;44.534;18.684;2024-01-15T06:36:54;97535.19;;;0.24;78.40
84712;BME280;74937;44.534;18.684;2024-01-15T06:39:19;97536.03;;;0.25;78.22
84712;BME280;74937;44.534;18.684;2024-01-15T06:41:45;97519.47;;;0.28;78.54
84712;BME280;74937;44.534;18.684;2024-01-15T06:44:11;97521.63;;;0.35;78.01
84712;BME280;74937;44.534;18.684;2024-01-15T06:46:45;97521.44;;;0.38;77.70
84712;BME280;74937;44.534;18.684;2024-01-15T06:49:11;97531.66;;;0.41;77.74
84712;BME280;74937;44.534;18.684;2024-01-15T06:51:37;97534.88;;;0.45;77.85
84712;BME280;74937;44.534;18.684;2024-01-15T06:54:03;97523.41;;;0.49;78.11
84712;BME280;74937;44.534;18.684;2024-01-15T06:56:29;97525.56;;;0.57;77.98
84712;BME280;74937;44.534;18.684;2024-01-15T06:58:55;97534.66;;;0.64;78.14
84712;BME280;74937;44.534;18.684;2024-01-15T07:01:20;97530.03;;;0.69;77.63
84712;BME280;74937;44.534;18.684;2024-01-15T07:03:46;97528.84;;;0.74;77.87
84712;BME280;74937;44.534;18.684;2024-01-15T07:06:12;97522.47;;;0.80;77.54
84712;BME280;74937;44.534;18.684;2024-01-15T07:08:39;97528.94;;;0.87;77.58
84712;BME280;74937;44.534;18.684;2024-01-15T07:11:05;97518.22;;;0.93;76.96
84712;BME280;74937;44.534;18.684;2024-01-15T07:13:31;97525.16;;;0.93;77.38
84712;BME280;74937;44.534;18.684;2024-01-15T07:15:56;97529.41;;;0.94;77.33
84712;BME280;74937;44.534;18.684;2024-01-15T07:18:23;97530.03;;;0.97;77.77
84712;BME280;74937;44.534;18.684;2024-01-15T07:20:49;97529.69;;;1.03;77.69
84712;BME280;74937;44.534;18.684;2024-01-15T07:23:15;97515.41;;;1.11;77.12
84712;BME280;74937;44.534;18.684;2024-01-15T07:25:41;97516.19;;;1.13;77.42
84712;BME280;74937;44.534;18.684;2024-01-15T07:28:07;97510.69;;;1.17;77.40
84712;BME280;74937;44.534;18.684;2024-01-15T07:30:32;97513.91;;;1.35;78.15
84712;BME280;74937;44.534;18.684;2024-01-15T07:32:58;97506.34;;;1.18;78.13
84712;BME280;74937;44.534;18.684;2024-01-15T07:35:24;97521.16;;;1.16;78.31
84712;BME280;74937;44.534;18.684;2024-01-15T07:37:49;97513.38;;;1.16;77.85
84712;BME280;74937;44.534;18.684;2024-01-15T07:40:15;97508.03;;;1.19;78.06
84712;BME280;74937;44.534;18.684;2024-01-15T07:42:41;97510.25;;;1.25;77.92
84712;BME280;74937;44.534;18.684;2024-01-15T07:45:10;97513.66;;;1.40;77.70
84712;BME280;74937;44.534;18.684;2024-01-15T07:47:36;97508.94;;;1.32;78.21
84712;BME280;74937;44.534;18.684;2024-01-15T07:50:02;97503.38;;;1.38;78.62
84712;BME280;74937;44.534;18.684;2024-01-15T07:52:28;97498.81;;;1.42;79.08
84712;BME280;74937;44.534;18.684;2024-01-15T07:54:54;97494.25;;;1.45;78.78
84712;BME280;74937;44.534;18.684;2024-01-15T07:57:20;97486.81;;;1.53;78.56
84712;BME280;74937;44.534;18.684;2024-01-15T07:59:46;97489.03;;;1.59;78.66
84712;BME280;74937;44.534;18.684;2024-01-15T08:02:11;97489.59;;;1.65;78.68
84712;BME280;74937;44.534;18.684;2024-01-15T08:04:37;97490.41;;;1.65;78.23
84712;BME280;74937;44.534;18.684;2024-01-15T08:07:06;97495.31;;;1.70;77.79
84712;BME280;74937;44.534;18.684;2024-01-15T08:09:35;97496.16;;;1.70;78.08
84712;BME280;74937;44.534;18.684;2024-01-15T08:12:00;97506.44;;;1.72;78.47
84712;BME280;74937;44.534;18.684;2024-01-15T08:14:26;97502.63;;;1.77;78.77
84712;BME280;74937;44.534;18.684;2024-01-15T08:16:52;97500.47;;;1.84;78.26
84712;BME280;74937;44.534;18.684;2024-01-15T08:19:18;97500.09;;;1.90;78.47
84712;BME280;74937;44.534;18.684;2024-01-15T08:21:45;97504.88;;;1.96;78.39
84712;BME280;74937;44.534;18.684;2024-01-15T08:24:11;97509.25;;;2.08;77.77
84712;BME280;74937;44.534;18.684;2024-01-15T08:26:36;97515.09;;;2.12;77.76
84712;BME280;74937;44.534;18.684;2024-01-15T08:29:02;97516.66;;;2.14;77.66
84712;BME280;74937;44.534;18.684;2024-01-15T08:31:28;97515.94;;;2.12;77.56
84712;BME280;74937;44.534;18.684;2024-01-15T08:33:54;97517.41;;;2.16;77.45
84712;BME280;74937;44.534;18.684;2024-01-15T08:36:21;97520.44;;;2.23;78.17
84712;BME280;74937;44.534;18.684;2024-01-15T08:38:46;97520.75;;;2.18;79.06
84712;BME280;74937;44.534;18.684;2024-01-15T08:41:13;97513.66;;;2.21;79.17
84712;BME280;74937;44.534;18.684;2024-01-15T08:43:39;97521.59;;;2.32;78.57
84712;BME280;74937;44.534;18.684;2024-01-15T08:46:05;97529.31;;;2.33;78.90
84712;BME280;74937;44.534;18.684;2024-01-15T08:48:31;97525.28;;;2.42;78.76
84712;BME280;74937;44.534;18.684;2024-01-15T08:50:56;97529.16;;;2.49;78.24
84712;BME280;74937;44.534;18.684;2024-01-15T08:53:22;97540.50;;;2.61;78.36
84712;BME280;74937;44.534;18.684;2024-01-15T08:55:48;97544.16;;;2.71;77.56
84712;BME280;74937;44.534;18.684;2024-01-15T08:58:14;97544.06;;;2.85;77.52
84712;BME280;74937;44.534;18.684;2024-01-15T09:00:40;97543.34;;;2.96;77.74
84712;BME280;74937;44.534;18.684;2024-01-15T09:03:06;97549.59;;;2.93;77.33
84712;BME280;74937;44.534;18.684;2024-01-15T09:05:34;97545.41;;;3.04;77.24
84712;BME280;74937;44.534;18.684;2024-01-15T09:07:59;97541.56;;;3.09;76.78
84712;BME280;74937;44.534;18.684;2024-01-15T09:10:25;97553.44;;;3.13;77.01
84712;BME280;74937;44.534;18.684;2024-01-15T09:12:51;97540.22;;;3.16;77.05
84712;BME280;74937;44.534;18.684;2024-01-15T09:15:17;97541.75;;;3.19;77.32
84712;BME280;74937;44.534;18.684;2024-01-15T09:17:43;97536.38;;;3.22;77.41
84712;BME280;74937;44.534;18.684;2024-01-15T09:20:09;97540.44;;;3.26;76.82
84712;BME280;74937;44.534;18.684;2024-01-15T09:22:37;97538.31;;;3.31;77.38
84712;BME280;74937;44.534;18.684;2024-01-15T09:25:04;97543.75;;;3.41;77.10
84712;BME280;74937;44.534;18.684;2024-01-15T09:27:30;97535.28;;;3.50;76.95
84712;BME280;74937;44.534;18.684;2024-01-15T09:29:56;97530.25;;;3.60;76.00
84712;BME280;74937;44.534;18.684;2024-01-15T09:32:21;97525.84;;;3.73;75.75
84712;BME280;74937;44.534;18.684;2024-01-15T09:34:47;97534.50;;;3.73;75.57
84712;BME280;74937;44.534;18.684;2024-01-15T09:37:16;97519.25;;;3.80;75.42
84712;BME280;74937;44.534;18.684;2024-01-15T09:39:41;97503.28;;;3.85;74.65
84712;BME280;74937;44.534;18.684;2024-01-15T09:42:07;97494.19;;;3.90;74.32
84712;BME280;74937;44.534;18.684;2024-01-15T09:44:34;97487.59;;;3.97;74.43
84712;BME280;74937;44.534;18.684;2024-01-15T09:47:01;97489.16;;;4.00;75.09
84712;BME280;74937;44.534;18.684;2024-01-15T09:49:26;97481.94;;;4.03;75.26
84712;BME280;74937;44.534;18.684;2024-01-15T09:51:53;97476.38;;;4.08;75.99
84712;BME280;74937;44.534;18.684;2024-01-15T09:54:20;97472.19;;;4.18;76.03
84712;BME280;74937;44.534;18.684;2024-01-15T09:56:47;97484.00;;;4.11;75.89
84712;BME280;74937;44.534;18.684;2024-01-15T09:59:19;97473.66;;;4.09;75.68
84712;BME280;74937;44.534;18.684;2024-01-15T10:01:45;97473.44;;;4.13;76.49
84712;BME280;74937;44.534;18.684;2024-01-15T10:04:13;97463.59;;;4.16;76.54
84712;BME280;74937;44.534;18.684;2024-01-15T10:06:43;97468.28;;;4.24;76.09
84712;BME280;74937;44.534;18.684;2024-01-15T10:09:12;97465.56;;;4.36;75.18
84712;BME280;74937;44.534;18.684;2024-01-15T10:11:41;97460.72;;;4.43;75.51
84712;BME280;74937;44.534;18.684;2024-01-15T10:14:09;97457.78;;;4.48;75.50
84712;BME280;74937;44.534;18.684;2024-01-15T10:16:38;97461.84;;;4.52;75.63
84712;BME280;74937;44.534;18.684;2024-01-15T10:19:04;97470.63;;;4.62;75.48
84712;BME280;74937;44.534;18.684;2024-01-15T10:21:33;97478.91;;;4.56;75.84
84712;BME280;74937;44.534;18.684;2024-01-15T10:24:03;97473.44;;;4.48;76.27
84712;BME280;74937;44.534;18.684;2024-01-15T10:26:30;97489.22;;;4.46;77.58
84712;BME280;74937;44.534;18.684;2024-01-15T10:28:56;97472.44;;;4.26;78.95
84712;BME280;74937;44.534;18.684;2024-01-15T10:31:23;97461.50;;;4.21;79.54
84712;BME280;74937;44.534;18.684;2024-01-15T10:33:50;97462.22;;;4.23;79.80
84712;BME280;74937;44.534;18.684;2024-01-15T10:36:16;97450.13;;;4.22;79.23
84712;BME280;74937;44.534;18.684;2024-01-15T10:38:43;97444.81;;;4.24;79.22
84712;BME280;74937;44.534;18.684;2024-01-15T10:41:09;97435.22;;;4.24;79.63
84712;BME280;74937;44.534;18.684;2024-01-15T10:43:35;97431.78;;;4.24;80.38
84712;BME280;74937;44.534;18.684;2024-01-15T10:46:01;97430.00;;;4.24;80.37
84712;BME280;74937;44.534;18.684;2024-01-15T10:48:27;97432.25;;;4.29;79.24
84712;BME280;74937;44.534;18.684;2024-01-15T10:50:54;97421.09;;;4.27;79.64
84712;BME280;74937;44.534;18.684;2024-01-15T10:53:20;97422.63;;;4.29;79.78
84712;BME280;74937;44.534;18.684;2024-01-15T10:55:47;97426.56;;;4.35;80.55
84712;BME280;74937;44.534;18.684;2024-01-15T10:58:16;97426.72;;;4.45;80.42
84712;BME280;74937;44.534;18.684;2024-01-15T11:00:44;97419.94;;;4.42;80.76
84712;BME280;74937;44.534;18.684;2024-01-15T11:03:10;97405.13;;;4.31;80.84
84712;BME280;74937;44.534;18.684;2024-01-15T11:05:43;97397.50;;;4.28;80.91
84712;BME280;74937;44.534;18.684;2024-01-15T11:08:09;97402.16;;;4.25;81.85
84712;BME280;74937;44.534;18.684;2024-01-15T11:10:44;97400.59;;;4.22;82.49
84712;BME280;74937;44.534;18.684;2024-01-15T11:16:04;97399.41;;;4.26;83.33
84712;BME280;74937;44.534;18.684;2024-01-15T11:18:31;97379.63;;;4.24;83.47
84712;BME280;74937;44.534;18.684;2024-01-15T11:29:10;97371.22;;;4.31;83.93
84712;BME280;74937;44.534;18.684;2024-01-15T11:34:08;97378.66;;;4.36;83.60
84712;BME280;74937;44.534;18.684;2024-01-15T11:41:57;97364.91;;;4.23;86.23
84712;BME280;74937;44.534;18.684;2024-01-15T11:44:23;97353.66;;;4.22;86.93
84712;BME280;74937;44.534;18.684;2024-01-15T11:46:59;97351.53;;;4.27;86.65
84712;BME280;74937;44.534;18.684;2024-01-15T11:52:10;97349.50;;;4.42;86.00
84712;BME280;74937;44.534;18.684;2024-01-15T11:54:38;97343.63;;;4.51;85.37
84712;BME280;74937;44.534;18.684;2024-01-15T11:57:13;97327.59;;;4.56;87.10
84712;BME280;74937;44.534;18.684;2024-01-15T11:59:45;97330.56;;;4.51;86.38
84712;BME280;74937;44.534;18.684;2024-01-15T12:02:11;97336.38;;;4.55;86.18
84712;BME280;74937;44.534;18.684;2024-01-15T12:04:38;97335.06;;;4.60;86.26
84712;BME280;74937;44.534;18.684;2024-01-15T12:07:04;97327.59;;;4.67;85.84
84712;BME280;74937;44.534;18.684;2024-01-15T12:09:30;97315.72;;;4.74;85.98
84712;BME280;74937;44.534;18.684;2024-01-15T12:12:03;97323.31;;;4.77;85.48
84712;BME280;74937;44.534;18.684;2024-01-15T12:14:32;97317.03;;;4.80;85.24
84712;BME280;74937;44.534;18.684;2024-01-15T12:17:00;97315.59;;;4.76;87.56
84712;BME280;74937;44.534;18.684;2024-01-15T12:19:26;97306.50;;;4.70;87.31
84712;BME280;74937;44.534;18.684;2024-01-15T12:21:51;97320.59;;;4.79;87.44
84712;BME280;74937;44.534;18.684;2024-01-15T12:24:17;97315.94;;;4.82;86.45
84712;BME280;74937;44.534;18.684;2024-01-15T12:26:44;97306.94;;;4.86;87.04
84712;BME280;74937;44.534;18.684;2024-01-15T12:29:11;97303.84;;;4.93;87.17
84712;BME280;74937;44.534;18.684;2024-01-15T12:31:36;97292.53;;;5.03;86.94
84712;BME280;74937;44.534;18.684;2024-01-15T12:34:02;97289.78;;;5.16;86.29
84712;BME280;74937;44.534;18.684;2024-01-15T12:36:31;97276.56;;;5.29;86.41
84712;BME280;74937;44.534;18.684;2024-01-15T12:39:00;97275.44;;;5.42;85.97
84712;BME280;74937;44.534;18.684;2024-01-15T12:41:26;97272.06;;;5.52;85.69
84712;BME280;74937;44.534;18.684;2024-01-15T12:43:51;97261.69;;;5.61;85.25
84712;BME280;74937;44.534;18.684;2024-01-15T12:46:17;97260.09;;;5.70;84.49
84712;BME280;74937;44.534;18.684;2024-01-15T12:48:44;97256.69;;;5.79;83.77
84712;BME280;74937;44.534;18.684;2024-01-15T12:51:10;97251.69;;;5.87;83.21
84712;BME280;74937;44.534;18.684;2024-01-15T12:53:36;97249.75;;;5.89;82.51
84712;BME280;74937;44.534;18.684;2024-01-15T12:56:02;97251.53;;;5.89;82.79
84712;BME280;74937;44.534;18.684;2024-01-15T12:58:28;97240.94;;;5.90;82.48
84712;BME280;74937;44.534;18.684;2024-01-15T13:00:54;97234.06;;;5.89;82.55
84712;BME280;74937;44.534;18.684;2024-01-15T13:03:19;97237.06;;;5.85;83.11
84712;BME280;74937;44.534;18.684;2024-01-15T13:05:45;97239.50;;;5.77;83.52
84712;BME280;74937;44.534;18.684;2024-01-15T13:08:11;97237.03;;;5.75;84.14
84712;BME280;74937;44.534;18.684;2024-01-15T13:10:36;97222.81;;;5.68;84.00